Stations météo

Publicité
Puerto Plata, République Dominicaine (78457): Température de l'air & dewpoint: 20.09.2017 05:00:00 - 26.09.2017 05:00:00 (AST)Puerto Plata, République Dominicaine (78457): Vitesse du vent: 20.09.2017 05:00:00 - 26.09.2017 05:00:00 (AST)Puerto Plata, République Dominicaine (78457): Direction du vent: 20.09.2017 05:00:00 - 26.09.2017 05:00:00 (AST)Puerto Plata, République Dominicaine (78457): visibility: 20.09.2017 05:00:00 - 26.09.2017 05:00:00 (AST)
Date & Time tt [°C] td [°C] ff [km/h] ff [knt] dd vv [km]
26.09.2017 05:00:00 24,0 24,0 0 0 N 10
26.09.2017 04:00:00 - - - - - -
26.09.2017 03:00:00 - - - - - -
26.09.2017 02:00:00 25,0 24,0 0 0 N 10
26.09.2017 01:00:00 - - - - - -
26.09.2017 00:00:00 - - - - - -
25.09.2017 23:00:00 25,0 24,0 0 0 N 10
25.09.2017 22:00:00 - - - - - -
25.09.2017 21:00:00 - - - - - -
25.09.2017 20:00:00 25,0 24,0 0 0 N 10
25.09.2017 19:00:00 26,0 24,0 0 0 N 8
25.09.2017 18:00:00 27,0 24,0 0 0 N 8
25.09.2017 17:00:00 30,0 26,0 9 5 E 8
25.09.2017 16:00:00 34,0 27,0 22 12 E 10
25.09.2017 15:00:00 32,0 27,0 9 5 ENE 10
25.09.2017 14:00:00 34,0 26,0 9 5 N 10
25.09.2017 13:00:00 33,0 26,0 15 8 N 10
25.09.2017 12:00:00 32,0 26,0 9 5 N 10
25.09.2017 11:00:00 31,0 26,0 11 6 NNE 10
25.09.2017 10:00:00 31,0 26,0 0 0 N 10
25.09.2017 09:00:00 29,0 26,0 0 0 N 10
25.09.2017 08:00:00 26,0 24,0 0 0 N 10
25.09.2017 07:00:00 24,0 23,0 0 0 N 10
25.09.2017 06:00:00 - - - - - -
25.09.2017 05:00:00 24,0 23,0 0 0 N 10
25.09.2017 04:00:00 - - - - - -
25.09.2017 03:00:00 - - - - - -
25.09.2017 02:00:00 25,0 24,0 0 0 N 10
25.09.2017 01:00:00 - - - - - -
25.09.2017 00:00:00 - - - - - -
24.09.2017 23:00:00 26,0 25,0 0 0 N 10
24.09.2017 22:00:00 - - - - - -
24.09.2017 21:00:00 - - - - - -
24.09.2017 20:00:00 26,0 24,0 0 0 N 10
24.09.2017 19:00:00 27,0 23,0 0 0 N 10
24.09.2017 18:00:00 27,0 24,0 9 5 S 10
24.09.2017 17:00:00 30,0 26,0 0 0 N 10
24.09.2017 16:00:00 31,0 26,0 8 4 N 10
24.09.2017 15:00:00 32,0 26,0 15 8 N 10
24.09.2017 14:00:00 32,0 26,0 11 6 NNE 10
24.09.2017 13:00:00 32,0 25,0 0 0 N 10
24.09.2017 12:00:00 31,0 25,0 0 0 N 10
24.09.2017 11:00:00 32,0 24,0 0 0 N 10
24.09.2017 10:00:00 31,0 26,0 0 0 N 10
24.09.2017 09:00:00 30,0 25,0 0 0 N 10
24.09.2017 08:00:00 26,0 24,0 0 0 N 10
24.09.2017 07:00:00 - - - - - -
24.09.2017 06:00:00 25,0 24,0 0 0 N 10
24.09.2017 05:00:00 24,0 23,0 0 0 N 10
24.09.2017 04:00:00 - - - - - -
24.09.2017 03:00:00 - - - - - -
24.09.2017 02:00:00 - - - - - -
24.09.2017 01:00:00 - - - - - -
24.09.2017 00:00:00 - - - - - -
23.09.2017 23:00:00 26,0 25,0 0 0 N 10
23.09.2017 22:00:00 - - - - - -
23.09.2017 21:00:00 - - - - - -
23.09.2017 20:00:00 28,0 27,0 0 0 N 10
23.09.2017 19:00:00 30,0 27,0 0 0 N 10
23.09.2017 18:00:00 31,0 28,0 0 0 N 10
23.09.2017 17:00:00 31,0 28,0 9 5 NNE 10
23.09.2017 16:00:00 32,0 27,0 22 12 SSE 10
23.09.2017 15:00:00 32,0 27,0 9 5 ENE 10
23.09.2017 14:00:00 34,0 25,0 15 8 ENE 10
23.09.2017 13:00:00 33,0 26,0 18 10 ENE 10
23.09.2017 12:00:00 33,0 27,0 9 5 ENE 10
23.09.2017 11:00:00 32,0 27,0 11 6 ENE 10
23.09.2017 10:00:00 30,0 25,0 0 0 N 10
23.09.2017 09:00:00 29,0 25,0 0 0 N 10
23.09.2017 08:00:00 26,0 24,0 0 0 N 10
23.09.2017 07:00:00 25,0 23,0 0 0 N 10
23.09.2017 06:00:00 - - - - - -
23.09.2017 05:00:00 24,0 23,0 0 0 N 10
23.09.2017 04:00:00 - - - - - -
23.09.2017 03:00:00 - - - - - -
23.09.2017 02:00:00 25,0 24,0 0 0 N 10
23.09.2017 01:00:00 - - - - - -
23.09.2017 00:00:00 - - - - - -
22.09.2017 23:00:00 26,0 25,0 0 0 N 10
22.09.2017 22:00:00 - - - - - -
22.09.2017 21:00:00 - - - - - -
22.09.2017 20:00:00 29,0 26,0 0 0 N 10
22.09.2017 19:00:00 29,0 26,0 9 5 WSW 10
22.09.2017 18:00:00 29,0 26,0 22 12 W 10
22.09.2017 17:00:00 30,0 26,0 11 6 NNE 10
22.09.2017 16:00:00 30,0 26,0 9 5 ENE 10
22.09.2017 15:00:00 31,0 26,0 18 10 E 10
22.09.2017 14:00:00 31,0 26,0 11 6 ENE 10
22.09.2017 13:00:00 32,0 26,0 9 5 ENE 10
22.09.2017 12:00:00 32,0 26,0 0 0 N 10
22.09.2017 11:00:00 31,0 24,0 9 5 ENE 10
22.09.2017 10:00:00 31,0 22,0 9 5 W 10
22.09.2017 09:00:00 29,0 23,0 9 5 SSE 10
22.09.2017 08:00:00 28,0 22,0 9 5 SSW 10
22.09.2017 07:00:00 25,0 24,0 15 8 SW 10
22.09.2017 06:00:00 26,0 23,0 18 10 SW 10
22.09.2017 05:00:00 26,0 24,0 18 10 SW 10
22.09.2017 04:00:00 27,0 22,0 22 12 SW 10
22.09.2017 03:00:00 27,0 23,0 18 10 SW 10
22.09.2017 02:00:00 27,0 23,0 31 17 SW 10
22.09.2017 01:00:00 26,0 23,0 31 17 SW 8
22.09.2017 00:00:00 25,0 23,0 35 19 SW 8
21.09.2017 23:00:00 24,0 24,0 22 12 SW 7
21.09.2017 22:00:00 25,0 24,0 46 25 W 7
21.09.2017 21:00:00 25,0 25,0 28 15 W 6
21.09.2017 20:00:00 25,0 24,0 59 32 W 6
21.09.2017 19:00:00 24,0 24,0 46 25 W 6
21.09.2017 18:00:00 24,0 24,0 37 20 W 7
21.09.2017 17:00:00 26,0 24,0 37 20 WNW 7
21.09.2017 16:00:00 25,0 24,0 37 20 W 7
21.09.2017 15:00:00 28,0 26,0 29 16 SW 7
21.09.2017 14:00:00 25,0 25,0 41 22 W 6
21.09.2017 13:00:00 24,0 23,0 37 20 WNW 5
21.09.2017 12:00:00 26,0 25,0 31 17 NNW 2,0
21.09.2017 11:00:00 27,0 26,0 37 20 WNW 8
21.09.2017 10:00:00 28,0 26,0 28 15 WNW 7
21.09.2017 09:00:00 29,0 28,0 37 20 NNW 7
21.09.2017 08:00:00 27,0 26,0 28 15 N 7
21.09.2017 07:00:00 28,0 26,0 28 15 N 7
21.09.2017 06:00:00 27,0 26,0 35 19 NNW 7
21.09.2017 05:00:00 28,0 26,0 29 16 NW 8
21.09.2017 04:00:00 29,0 26,0 29 16 NW 7
21.09.2017 03:00:00 27,0 26,0 26 14 NW 7
21.09.2017 02:00:00 27,0 26,0 22 12 NNW 7
21.09.2017 01:00:00 26,0 26,0 18 10 N 7
21.09.2017 00:00:00 26,0 25,0 13 7 N 6
20.09.2017 23:00:00 28,0 25,0 18 10 N 7
20.09.2017 22:00:00 28,0 25,0 9 5 N 10
20.09.2017 21:00:00 28,0 25,0 16 9 N 10
20.09.2017 20:00:00 25,0 25,0 9 5 N 8
20.09.2017 19:00:00 27,0 26,0 31 17 N 3,0
20.09.2017 18:00:00 29,0 25,0 21 11 N 10
20.09.2017 17:00:00 29,0 25,0 13 7 N 10
20.09.2017 16:00:00 30,0 25,0 13 7 N 10
20.09.2017 15:00:00 30,0 25,0 13 7 N 10
20.09.2017 14:00:00 32,0 26,0 18 10 NNE 10
20.09.2017 13:00:00 31,0 26,0 15 8 ENE 10
20.09.2017 12:00:00 31,0 25,0 18 10 ENE 10
20.09.2017 11:00:00 30,0 26,0 11 6 ENE 10
20.09.2017 10:00:00 29,0 24,0 15 8 ENE 10
20.09.2017 09:00:00 26,0 24,0 0 0 N 10
20.09.2017 08:00:00 25,0 24,0 0 0 N 10
20.09.2017 07:00:00 24,0 24,0 0 0 N 10
20.09.2017 06:00:00 25,0 24,0 15 8 WNW 10
20.09.2017 05:00:00 25,0 24,0 15 8 WNW 10

tt = Température de l'air
td = dewpoint
ff = Vitesse du vent
dd = Direction du vent
vv = visibility

stations d'obs. à proximité